createdAt,value
2018-03-24T00:00:04.127Z,66.30
2018-03-24T00:02:33.830Z,66.20
2018-03-24T00:05:07.274Z,66.30
2018-03-24T00:07:36.596Z,66.30
2018-03-24T00:10:09.550Z,66.30
2018-03-24T00:12:38.925Z,66.40
2018-03-24T00:15:15.884Z,66.80
2018-03-24T00:17:45.476Z,65.50
2018-03-24T00:20:15.713Z,65.90
2018-03-24T00:22:45.043Z,66.10
2018-03-24T00:25:18.988Z,65.70
2018-03-24T00:27:48.406Z,65.50
2018-03-24T00:30:21.816Z,65.70
2018-03-24T00:32:51.928Z,65.70
2018-03-24T00:35:22.275Z,66.40
2018-03-24T00:37:53.434Z,66.20
2018-03-24T00:40:26.005Z,66.10
2018-03-24T00:42:55.368Z,66.10
2018-03-24T00:45:28.688Z,66.00
2018-03-24T00:47:59.219Z,64.50
2018-03-24T00:50:30.868Z,65.20
2018-03-24T00:53:00.996Z,65.90
2018-03-24T00:55:34.437Z,66.50
2018-03-24T00:58:04.160Z,66.50
2018-03-24T01:00:37.270Z,66.30
2018-03-24T01:03:07.316Z,65.90
2018-03-24T01:05:39.125Z,67.40
2018-03-24T01:08:08.582Z,67.80
2018-03-24T01:10:41.933Z,66.90
2018-03-24T01:13:11.375Z,66.10
2018-03-24T01:15:45.338Z,66.20
2018-03-24T01:18:15.081Z,65.50
2018-03-24T01:20:48.547Z,66.20
2018-03-24T01:23:17.842Z,66.20
2018-03-24T01:25:51.219Z,66.00
2018-03-24T01:28:20.818Z,66.20
2018-03-24T01:30:58.414Z,66.20
2018-03-24T01:33:28.322Z,66.40
2018-03-24T01:35:59.403Z,66.60
2018-03-24T01:38:29.895Z,67.20
2018-03-24T01:41:03.120Z,68.00
2018-03-24T01:43:33.292Z,66.70
2018-03-24T01:46:06.487Z,66.20
2018-03-24T01:48:36.274Z,67.30
2018-03-24T01:51:08.418Z,67.70
2018-03-24T01:53:47.528Z,66.20
2018-03-24T01:56:17.586Z,66.20
2018-03-24T01:58:47.559Z,66.30
2018-03-24T02:01:18.034Z,66.90
2018-03-24T02:03:49.547Z,66.80
2018-03-24T02:06:19.588Z,66.30
2018-03-24T02:08:49.309Z,66.00
2018-03-24T02:11:21.951Z,66.20
2018-03-24T02:13:51.582Z,66.30
2018-03-24T02:16:22.608Z,66.60
2018-03-24T02:18:53.664Z,66.40
2018-03-24T02:21:25.581Z,66.40
2018-03-24T02:23:55.232Z,66.30
2018-03-24T02:26:28.660Z,67.00
2018-03-24T02:28:58.429Z,66.90
2018-03-24T02:31:30.064Z,67.10
2018-03-24T02:33:59.793Z,67.10
2018-03-24T02:36:32.686Z,67.40
2018-03-24T02:39:02.699Z,67.90
2018-03-24T02:41:35.584Z,68.00
2018-03-24T02:44:06.346Z,66.40
2018-03-24T02:46:39.231Z,66.30
2018-03-24T02:49:09.051Z,67.10
2018-03-24T02:51:42.957Z,67.60
2018-03-24T02:54:12.957Z,66.80
2018-03-24T02:56:45.767Z,67.10
2018-03-24T02:59:15.984Z,67.80
2018-03-24T03:01:49.472Z,67.20
2018-03-24T03:04:19.474Z,66.80
2018-03-24T03:06:51.512Z,67.90
2018-03-24T03:09:23.121Z,67.00
2018-03-24T03:11:57.405Z,67.00
2018-03-24T03:14:27.564Z,66.30
2018-03-24T03:16:59.111Z,67.10
2018-03-24T03:19:29.325Z,66.90
2018-03-24T03:22:02.248Z,67.40
2018-03-24T03:24:33.022Z,67.00
2018-03-24T03:27:04.768Z,67.10
2018-03-24T03:29:34.748Z,67.40
2018-03-24T03:32:06.482Z,67.20
2018-03-24T03:34:36.073Z,67.30
2018-03-24T03:37:10.920Z,67.10
2018-03-24T03:39:41.123Z,67.90
2018-03-24T03:42:14.703Z,67.60
2018-03-24T03:44:45.008Z,67.90
2018-03-24T03:47:14.863Z,67.90
2018-03-24T03:49:44.687Z,67.50
2018-03-24T03:52:18.470Z,67.60
2018-03-24T03:54:48.502Z,67.60
2018-03-24T03:57:19.871Z,67.70
2018-03-24T03:59:50.822Z,68.00
2018-03-24T04:02:22.673Z,68.00
2018-03-24T04:04:53.200Z,68.20
2018-03-24T04:07:24.124Z,68.10
2018-03-24T04:09:53.643Z,68.20
2018-03-24T04:12:27.927Z,68.20
2018-03-24T04:14:58.261Z,68.20
2018-03-24T04:17:29.753Z,68.20
2018-03-24T04:19:59.671Z,68.20
2018-03-24T04:22:33.754Z,67.80
2018-03-24T04:25:04.453Z,68.20
2018-03-24T04:27:36.767Z,68.20
2018-03-24T04:30:06.664Z,68.40
2018-03-24T04:32:37.577Z,68.20
2018-03-24T04:35:08.634Z,68.20
2018-03-24T04:37:39.482Z,68.60
2018-03-24T04:40:08.929Z,68.20
2018-03-24T04:42:42.776Z,68.10
2018-03-24T04:45:12.073Z,68.70
2018-03-24T04:47:46.067Z,69.00
2018-03-24T04:50:15.670Z,68.80
2018-03-24T04:52:49.369Z,68.90
2018-03-24T04:55:18.816Z,69.40
2018-03-24T04:57:52.943Z,68.00
2018-03-24T05:00:23.487Z,68.00
2018-03-24T05:02:57.158Z,68.00
2018-03-24T05:05:28.102Z,67.40
2018-03-24T05:08:00.480Z,68.20
2018-03-24T05:10:30.244Z,68.20
2018-03-24T05:13:04.230Z,67.10
2018-03-24T05:15:34.008Z,67.70
2018-03-24T05:18:07.629Z,69.20
2018-03-24T05:20:37.858Z,69.20
2018-03-24T05:23:11.481Z,69.00
2018-03-24T05:25:41.725Z,69.30
2018-03-24T05:28:13.206Z,68.60
2018-03-24T05:30:43.096Z,68.50
2018-03-24T05:33:16.140Z,69.00
2018-03-24T05:35:45.882Z,67.90
2018-03-24T05:38:18.893Z,68.10
2018-03-24T05:40:49.603Z,67.70
2018-03-24T05:43:21.138Z,67.70
2018-03-24T05:45:53.005Z,68.10
2018-03-24T05:48:23.033Z,68.00
2018-03-24T05:50:53.275Z,68.80
2018-03-24T05:53:24.964Z,69.00
2018-03-24T05:55:54.853Z,69.00
2018-03-24T05:58:28.394Z,69.10
2018-03-24T06:00:58.729Z,69.20
2018-03-24T06:03:30.930Z,68.90
2018-03-24T06:06:01.663Z,68.30
2018-03-24T06:08:32.969Z,68.30
2018-03-24T06:11:02.658Z,68.80
2018-03-24T06:13:36.673Z,68.70
2018-03-24T06:16:06.621Z,68.30
2018-03-24T06:18:37.872Z,68.80
2018-03-24T06:21:08.006Z,68.50
2018-03-24T06:23:40.131Z,69.90
2018-03-24T06:26:09.941Z,69.00
2018-03-24T06:28:47.286Z,68.90
2018-03-24T06:31:16.953Z,67.40
2018-03-24T06:33:46.912Z,68.10
2018-03-24T06:36:17.204Z,69.20
2018-03-24T06:38:50.710Z,69.80
2018-03-24T06:41:21.046Z,69.00
2018-03-24T06:43:54.440Z,69.00
2018-03-24T06:46:24.378Z,69.00
2018-03-24T06:48:57.027Z,68.30
2018-03-24T06:51:27.544Z,68.20
2018-03-24T06:54:00.860Z,68.20
2018-03-24T06:56:30.451Z,68.80
2018-03-24T06:59:04.506Z,68.60
2018-03-24T07:01:34.022Z,68.60
2018-03-24T07:04:11.179Z,68.90
2018-03-24T07:06:40.996Z,67.50
2018-03-24T07:09:11.024Z,67.30
2018-03-24T07:11:40.640Z,66.80
2018-03-24T07:14:13.968Z,67.70
2018-03-24T07:16:44.189Z,67.20
2018-03-24T07:19:15.557Z,67.70
2018-03-24T07:21:46.053Z,66.50
2018-03-24T07:24:18.671Z,66.50
2018-03-24T07:26:48.042Z,66.80
2018-03-24T07:29:20.270Z,68.00
2018-03-24T07:31:49.601Z,67.90
2018-03-24T07:34:22.934Z,67.90
2018-03-24T07:36:53.783Z,67.50
2018-03-24T07:39:26.784Z,66.90
2018-03-24T07:41:56.254Z,67.00
2018-03-24T07:44:29.416Z,67.70
2018-03-24T07:46:58.696Z,67.60
2018-03-24T07:49:35.549Z,66.50
2018-03-24T07:52:05.224Z,65.50
2018-03-24T07:54:34.858Z,64.40
2018-03-24T07:57:04.256Z,64.90
2018-03-24T07:59:38.690Z,64.70
2018-03-24T08:02:08.719Z,63.20
2018-03-24T08:04:40.905Z,64.20
2018-03-24T08:07:10.212Z,64.20
2018-03-24T08:09:42.931Z,63.50
2018-03-24T08:12:12.416Z,62.70
2018-03-24T08:14:46.391Z,62.90
2018-03-24T08:17:16.154Z,62.90
2018-03-24T08:19:52.890Z,62.20
2018-03-24T08:22:22.736Z,62.50
2018-03-24T08:24:52.055Z,62.50
2018-03-24T08:27:21.565Z,61.10
2018-03-24T08:29:58.256Z,60.70
2018-03-24T08:32:27.533Z,60.20
2018-03-24T08:34:58.179Z,60.90
2018-03-24T08:37:27.897Z,59.10
2018-03-24T08:40:01.485Z,59.10
2018-03-24T08:42:30.812Z,59.70
2018-03-24T08:45:07.446Z,59.00
2018-03-24T08:47:36.649Z,58.70
2018-03-24T08:50:08.245Z,59.20
2018-03-24T08:52:38.891Z,58.50
2018-03-24T08:55:16.094Z,58.60
2018-03-24T08:57:45.656Z,58.40
2018-03-24T09:00:15.757Z,58.30
2018-03-24T09:02:45.817Z,57.10
2018-03-24T09:05:16.110Z,57.10
2018-03-24T09:07:45.280Z,55.20
2018-03-24T09:10:22.215Z,56.20
2018-03-24T09:12:51.698Z,54.60
2018-03-24T09:15:23.905Z,53.80
2018-03-24T09:17:55.784Z,53.70
2018-03-24T09:20:25.549Z,51.60
2018-03-24T09:22:55.533Z,48.60
2018-03-24T09:25:26.875Z,48.70
2018-03-24T09:27:56.754Z,48.10
2018-03-24T09:30:29.632Z,48.80
2018-03-24T09:32:59.029Z,46.40
2018-03-24T09:35:32.396Z,48.60
2018-03-24T09:38:02.508Z,46.10
2018-03-24T09:40:35.465Z,45.90
2018-03-24T09:43:04.630Z,45.90
2018-03-24T09:45:37.225Z,43.40
2018-03-24T09:48:06.795Z,45.90
2018-03-24T09:50:40.259Z,43.90
2018-03-24T09:53:09.963Z,42.80
2018-03-24T09:55:43.368Z,43.80
2018-03-24T09:58:12.664Z,42.90
2018-03-24T10:00:49.697Z,43.80
2018-03-24T10:03:19.236Z,41.20
2018-03-24T10:05:50.410Z,44.90
2018-03-24T10:08:19.696Z,43.10
2018-03-24T10:10:53.136Z,42.00
2018-03-24T10:13:22.390Z,42.00
2018-03-24T10:15:59.470Z,42.70
2018-03-24T10:18:28.805Z,41.60
2018-03-24T10:21:01.086Z,41.50
2018-03-24T10:23:30.966Z,42.30
2018-03-24T10:26:03.061Z,41.10
2018-03-24T10:28:32.215Z,41.10
2018-03-24T10:31:05.892Z,41.50
2018-03-24T10:33:35.755Z,41.90
2018-03-24T10:36:12.783Z,39.10
2018-03-24T10:38:42.532Z,39.00
2018-03-24T10:41:12.711Z,39.30
2018-03-24T10:43:41.953Z,39.20
2018-03-24T10:46:14.949Z,41.80
2018-03-24T10:48:44.321Z,42.10
2018-03-24T10:51:17.383Z,41.70
2018-03-24T10:53:46.486Z,39.60
2018-03-24T10:56:23.123Z,40.50
2018-03-24T10:58:52.587Z,42.70
2018-03-24T11:01:24.741Z,39.80
2018-03-24T11:03:54.278Z,39.90
2018-03-24T11:06:24.561Z,40.40
2018-03-24T11:08:53.800Z,38.80
2018-03-24T11:11:27.026Z,41.20
2018-03-24T11:13:56.319Z,40.20
2018-03-24T11:16:29.572Z,40.30
2018-03-24T11:18:58.819Z,39.50
2018-03-24T11:21:31.113Z,41.70
2018-03-24T11:24:00.681Z,40.50
2018-03-24T11:26:33.718Z,39.80
2018-03-24T11:29:02.930Z,40.50
2018-03-24T11:31:36.611Z,40.50
2018-03-24T11:34:05.912Z,40.50
2018-03-24T11:36:43.406Z,37.10
2018-03-24T11:39:13.615Z,40.70
2018-03-24T11:41:42.943Z,40.60
2018-03-24T11:44:13.056Z,41.00
2018-03-24T11:46:46.169Z,41.00
2018-03-24T11:49:15.580Z,40.70
2018-03-24T11:51:52.434Z,40.40
2018-03-24T11:54:30.697Z,41.40
2018-03-24T11:56:59.989Z,42.10
2018-03-24T11:59:29.618Z,42.30
2018-03-24T12:01:59.194Z,43.00
2018-03-24T12:04:28.443Z,38.00
2018-03-24T12:06:58.945Z,37.80
2018-03-24T12:09:28.312Z,37.80
2018-03-24T12:12:04.048Z,37.70
2018-03-24T12:14:34.512Z,39.00
2018-03-24T12:17:06.502Z,37.30
2018-03-24T12:19:36.529Z,38.80
2018-03-24T12:22:09.000Z,37.50
2018-03-24T12:24:39.072Z,35.50
2018-03-24T12:27:15.432Z,35.50
2018-03-24T12:29:45.466Z,34.20
2018-03-24T12:32:18.040Z,34.10
2018-03-24T12:34:47.534Z,34.60
2018-03-24T12:37:18.126Z,36.30
2018-03-24T12:39:48.192Z,34.60
2018-03-24T12:42:19.846Z,34.50
2018-03-24T12:44:49.022Z,36.90
2018-03-24T12:47:22.048Z,33.60
2018-03-24T12:49:52.113Z,33.80
2018-03-24T12:52:25.433Z,33.80
2018-03-24T12:54:54.914Z,35.70
2018-03-24T12:57:26.193Z,33.20
2018-03-24T12:59:55.717Z,33.10
2018-03-24T13:02:29.178Z,34.00
2018-03-24T13:04:58.620Z,34.60
2018-03-24T13:07:31.897Z,33.40
2018-03-24T13:10:01.535Z,33.40
2018-03-24T13:12:37.905Z,35.40
2018-03-24T13:15:08.042Z,33.60
2018-03-24T13:17:37.540Z,33.50
2018-03-24T13:20:07.667Z,35.40
2018-03-24T13:22:41.019Z,35.10
2018-03-24T13:25:11.324Z,32.30
2018-03-24T13:27:45.140Z,34.00
2018-03-24T13:30:14.462Z,34.00
2018-03-24T13:32:47.510Z,33.10
2018-03-24T13:35:17.280Z,32.40
2018-03-24T13:37:50.570Z,35.80
2018-03-24T13:40:20.336Z,31.80
2018-03-24T13:42:56.675Z,31.90
2018-03-24T13:45:27.207Z,32.80
2018-03-24T13:47:56.946Z,32.70
2018-03-24T13:50:27.142Z,32.90
2018-03-24T13:53:00.308Z,33.00
2018-03-24T13:55:29.642Z,33.10
2018-03-24T13:58:06.536Z,32.90
2018-03-24T14:00:36.665Z,35.10
2018-03-24T14:03:05.960Z,35.00
2018-03-24T14:05:36.327Z,34.10
2018-03-24T14:08:09.110Z,34.10
2018-03-24T14:10:38.568Z,32.80
2018-03-24T14:13:15.701Z,33.60
2018-03-24T14:15:45.216Z,34.30
2018-03-24T14:18:16.076Z,35.50
2018-03-24T14:20:45.355Z,34.60
2018-03-24T14:23:18.994Z,35.50
2018-03-24T14:25:49.241Z,36.70
2018-03-24T14:28:21.727Z,36.60
2018-03-24T14:30:51.450Z,33.00
2018-03-24T14:33:22.705Z,35.10
2018-03-24T14:35:52.104Z,35.90
2018-03-24T14:38:25.314Z,34.80
2018-03-24T14:40:54.641Z,34.70
2018-03-24T14:43:28.349Z,37.10
2018-03-24T14:45:57.986Z,37.10
2018-03-24T14:48:31.091Z,35.00
2018-03-24T14:51:00.733Z,35.40
2018-03-24T14:53:33.103Z,36.40
2018-03-24T14:58:34.412Z,34.00
2018-03-24T15:01:03.765Z,34.00
2018-03-24T15:03:41.866Z,33.80
2018-03-24T15:06:11.206Z,33.90
2018-03-24T15:08:41.470Z,37.00
2018-03-24T15:11:10.802Z,37.00
2018-03-24T15:13:47.566Z,37.00
2018-03-24T15:16:17.944Z,37.00
2018-03-24T15:18:48.276Z,37.00
2018-03-24T15:21:17.599Z,36.80
2018-03-24T15:23:54.929Z,38.60
2018-03-24T15:26:24.243Z,36.60
2018-03-24T15:29:03.886Z,37.70
2018-03-24T15:32:55.598Z,40.00
2018-03-24T15:35:29.814Z,39.00
2018-03-24T15:38:00.923Z,39.20
2018-03-24T15:40:31.045Z,42.20
2018-03-24T15:43:07.432Z,42.20
2018-03-24T15:45:37.562Z,42.60
2018-03-24T15:48:08.181Z,42.60
2018-03-24T15:50:37.597Z,41.50
2018-03-24T15:53:14.811Z,42.10
2018-03-24T15:55:44.646Z,40.60
2018-03-24T15:58:14.176Z,40.70
2018-03-24T16:00:44.223Z,41.60
2018-03-24T16:03:16.249Z,41.50
2018-03-24T16:05:45.674Z,41.30
2018-03-24T16:08:22.709Z,42.10
2018-03-24T16:10:52.427Z,42.00
2018-03-24T16:13:21.843Z,42.70
2018-03-24T16:15:51.899Z,42.40
2018-03-24T16:18:23.140Z,42.40
2018-03-24T16:20:52.668Z,42.00
2018-03-24T16:23:25.241Z,43.10
2018-03-24T16:25:56.659Z,44.10
2018-03-24T16:28:27.379Z,44.20
2018-03-24T16:30:59.106Z,44.80
2018-03-24T16:33:29.743Z,43.20
2018-03-24T16:35:59.284Z,43.40
2018-03-24T16:38:35.835Z,44.20
2018-03-24T16:41:06.085Z,43.70
2018-03-24T16:43:36.042Z,43.70
2018-03-24T16:46:06.988Z,45.20
2018-03-24T16:48:40.213Z,45.10
2018-03-24T16:51:09.587Z,44.90
2018-03-24T16:53:42.920Z,44.80
2018-03-24T16:56:12.584Z,45.40
2018-03-24T16:58:45.591Z,44.60
2018-03-24T17:01:14.854Z,44.60
2018-03-24T17:03:48.555Z,45.40
2018-03-24T17:06:17.786Z,45.30
2018-03-24T17:08:55.137Z,44.90
2018-03-24T17:11:24.936Z,46.80
2018-03-24T17:13:55.290Z,45.90
2018-03-24T17:16:24.792Z,45.90
2018-03-24T17:19:01.702Z,47.70
2018-03-24T17:21:30.999Z,45.00
2018-03-24T17:24:02.328Z,45.30
2018-03-24T17:26:33.163Z,46.20
2018-03-24T17:29:10.082Z,46.20
2018-03-24T17:31:40.270Z,46.60
2018-03-24T17:34:10.421Z,45.60
2018-03-24T17:36:40.704Z,46.20
2018-03-24T17:39:18.031Z,46.20
2018-03-24T17:41:47.422Z,46.90
2018-03-24T17:44:18.745Z,47.00
2018-03-24T17:46:48.356Z,47.50
2018-03-24T17:49:21.782Z,47.50
2018-03-24T17:51:51.176Z,47.50
2018-03-24T17:54:23.928Z,48.30
2018-03-24T17:56:53.572Z,48.30
2018-03-24T17:59:24.813Z,48.70
2018-03-24T18:01:55.282Z,48.80
2018-03-24T18:04:26.888Z,48.80
2018-03-24T18:06:56.172Z,47.70
2018-03-24T18:09:29.773Z,48.50
2018-03-24T18:11:59.241Z,48.60
2018-03-24T18:14:30.306Z,48.60
2018-03-24T18:17:00.661Z,48.20
2018-03-24T18:19:33.097Z,48.20
2018-03-24T18:22:03.173Z,48.00
2018-03-24T18:24:40.371Z,48.00
2018-03-24T18:27:09.690Z,48.10
2018-03-24T18:29:38.990Z,48.60
2018-03-24T18:32:10.387Z,48.70
2018-03-24T18:34:40.459Z,48.70
2018-03-24T18:37:10.309Z,48.30
2018-03-24T18:39:46.308Z,49.00
2018-03-24T18:42:15.800Z,49.30
2018-03-24T18:44:48.361Z,48.40
2018-03-24T18:47:18.365Z,49.40
2018-03-24T18:49:55.792Z,48.70
2018-03-24T18:52:25.494Z,49.50
2018-03-24T18:54:56.302Z,50.20
2018-03-24T18:57:25.592Z,49.90
2018-03-24T18:59:59.529Z,50.10
2018-03-24T19:02:29.680Z,50.00
2018-03-24T19:05:01.966Z,50.30
2018-03-24T19:07:33.238Z,50.60
2018-03-24T19:10:05.978Z,50.60
2018-03-24T19:12:35.446Z,50.00
2018-03-24T19:15:12.290Z,50.30
2018-03-24T19:17:41.692Z,50.40
2018-03-24T19:20:12.205Z,50.70
2018-03-24T19:22:41.683Z,51.20
2018-03-24T19:25:14.924Z,51.60
2018-03-24T19:27:45.132Z,51.20
2018-03-24T19:30:18.350Z,51.20
2018-03-24T19:32:49.765Z,51.40
2018-03-24T19:35:19.427Z,51.40
2018-03-24T19:37:48.894Z,51.30
2018-03-24T19:40:20.606Z,51.40
2018-03-24T19:42:50.298Z,51.80
2018-03-24T19:45:22.675Z,51.80
2018-03-24T19:47:52.268Z,51.70
2018-03-24T19:50:25.524Z,51.50
2018-03-24T19:52:54.919Z,52.60
2018-03-24T19:55:27.572Z,52.70
2018-03-24T19:57:57.738Z,52.70
2018-03-24T20:00:30.351Z,52.70
2018-03-24T20:03:01.279Z,52.50
2018-03-24T20:05:34.020Z,52.70
2018-03-24T20:08:06.507Z,52.40
2018-03-24T20:13:13.048Z,52.50
2018-03-24T20:15:43.666Z,52.60
2018-03-24T20:18:13.147Z,53.20
2018-03-24T20:20:42.457Z,52.60
2018-03-24T20:23:12.159Z,53.40
2018-03-24T20:25:49.214Z,52.50
2018-03-24T20:28:18.529Z,52.60
2018-03-24T20:30:48.926Z,53.60
2018-03-24T20:33:19.126Z,53.90
2018-03-24T20:35:51.976Z,53.90
2018-03-24T20:38:21.638Z,53.20
2018-03-24T20:40:58.338Z,53.10
2018-03-24T20:43:28.136Z,53.40
2018-03-24T20:45:57.640Z,53.90
2018-03-24T20:48:26.986Z,53.30
2018-03-24T20:51:05.717Z,53.70
2018-03-24T20:53:35.853Z,54.30
2018-03-24T20:56:05.278Z,54.30
2018-03-24T20:58:35.373Z,54.00
2018-03-24T21:01:05.839Z,54.00
2018-03-24T21:03:35.606Z,54.00
2018-03-24T21:06:09.478Z,54.30
2018-03-24T21:08:40.341Z,54.40
2018-03-24T21:11:12.185Z,54.60
2018-03-24T21:13:41.685Z,54.60
2018-03-24T21:16:15.178Z,54.40
2018-03-24T21:18:45.067Z,54.50
2018-03-24T21:21:18.600Z,55.10
2018-03-24T21:23:49.565Z,55.40
2018-03-24T21:26:20.977Z,55.40
2018-03-24T21:28:50.377Z,55.80
2018-03-24T21:31:23.946Z,55.20
2018-03-24T21:33:53.366Z,55.30
2018-03-24T21:36:24.349Z,55.30
2018-03-24T21:38:54.255Z,55.60
2018-03-24T21:41:27.302Z,55.50
2018-03-24T21:43:56.848Z,55.90
2018-03-24T21:46:30.934Z,55.10
2018-03-24T21:49:00.319Z,54.90
2018-03-24T21:51:32.429Z,55.40
2018-03-24T21:54:04.106Z,54.80
2018-03-24T21:56:35.097Z,54.80
2018-03-24T21:59:04.771Z,55.30
2018-03-24T22:01:47.844Z,55.10
2018-03-24T22:04:17.323Z,56.50
2018-03-24T22:06:47.443Z,55.70
2018-03-24T22:09:17.602Z,55.70
2018-03-24T22:11:47.254Z,55.10
2018-03-24T22:14:16.650Z,55.10
2018-03-24T22:16:46.760Z,54.60
2018-03-24T22:19:16.252Z,55.30
2018-03-24T22:21:49.263Z,55.30
2018-03-24T22:24:19.359Z,55.10
2018-03-24T22:26:52.585Z,55.80
2018-03-24T22:29:21.985Z,55.10
2018-03-24T22:31:55.794Z,54.20
2018-03-24T22:34:25.737Z,54.50
2018-03-24T22:37:00.429Z,54.50
2018-03-24T22:39:31.197Z,54.50
2018-03-24T22:42:06.922Z,55.00
2018-03-24T22:44:36.530Z,54.80
2018-03-24T22:47:14.077Z,54.40
2018-03-24T22:49:43.636Z,54.50
2018-03-24T22:52:16.172Z,54.80
2018-03-24T22:54:46.220Z,55.30
2018-03-24T22:57:19.847Z,54.70
2018-03-24T22:59:49.975Z,54.30
2018-03-24T23:02:20.286Z,54.30
2018-03-24T23:04:50.034Z,55.00
2018-03-24T23:07:23.152Z,54.30
2018-03-24T23:09:54.235Z,54.30
2018-03-24T23:12:23.746Z,54.70
2018-03-24T23:14:53.212Z,54.30
2018-03-24T23:17:26.712Z,54.80
2018-03-24T23:19:57.038Z,54.60
2018-03-24T23:22:30.016Z,54.60
2018-03-24T23:24:59.868Z,55.50
2018-03-24T23:27:33.278Z,55.70
2018-03-24T23:30:02.615Z,54.30
2018-03-24T23:41:22.779Z,54.30
2018-03-24T23:43:52.586Z,54.00
2018-03-24T23:46:31.742Z,55.00
2018-03-24T23:59:14.423Z,56.60
